sensor_id;sensor_type;location;lat;lon;timestamp;pressure;altitude;pressure_sealevel;temperature;humidity
55271;BME280;41132;47.162;9.470;2023-04-06T04:28:45;96722.72;;;0.31;87.90
55271;BME280;41132;47.162;9.470;2023-04-06T04:31:10;96721.13;;;0.28;89.18
55271;BME280;41132;47.162;9.470;2023-04-06T04:33:36;96727.66;;;0.19;88.24
55271;BME280;41132;47.162;9.470;2023-04-06T04:36:01;96726.91;;;0.17;89.26
55271;BME280;41132;47.162;9.470;2023-04-06T04:38:27;96733.03;;;0.31;86.92
55271;BME280;41132;47.162;9.470;2023-04-06T04:40:52;96728.56;;;0.34;87.36
55271;BME280;41132;47.162;9.470;2023-04-06T04:43:18;96723.47;;;0.33;87.83
55271;BME280;41132;47.162;9.470;2023-04-06T04:45:43;96730.50;;;0.45;85.75
55271;BME280;41132;47.162;9.470;2023-04-06T04:48:08;96720.06;;;0.32;86.55
55271;BME280;41132;47.162;9.470;2023-04-06T04:50:34;96724.81;;;0.24;87.06
55271;BME280;41132;47.162;9.470;2023-04-06T04:52:59;96733.38;;;0.25;87.62
55271;BME280;41132;47.162;9.470;2023-04-06T04:55:25;96734.13;;;0.27;87.96
55271;BME280;41132;47.162;9.470;2023-04-06T04:57:51;96736.47;;;0.15;89.16
55271;BME280;41132;47.162;9.470;2023-04-06T05:00:16;96730.03;;;0.23;87.26
55271;BME280;41132;47.162;9.470;2023-04-06T05:02:42;96740.25;;;0.40;85.67
55271;BME280;41132;47.162;9.470;2023-04-06T05:05:07;96729.84;;;0.41;86.10
55271;BME280;41132;47.162;9.470;2023-04-06T05:07:33;96738.63;;;0.39;86.00
55271;BME280;41132;47.162;9.470;2023-04-06T05:09:59;96723.88;;;0.41;83.91
55271;BME280;41132;47.162;9.470;2023-04-06T05:12:24;96734.44;;;0.67;85.13
55271;BME280;41132;47.162;9.470;2023-04-06T05:14:50;96727.22;;;0.57;82.35
55271;BME280;41132;47.162;9.470;2023-04-06T05:17:15;96741.91;;;0.57;82.80
55271;BME280;41132;47.162;9.470;2023-04-06T05:19:41;96728.31;;;0.53;84.10
55271;BME280;41132;47.162;9.470;2023-04-06T05:22:06;96731.47;;;0.58;83.02
55271;BME280;41132;47.162;9.470;2023-04-06T05:24:31;96742.47;;;0.62;84.30
55271;BME280;41132;47.162;9.470;2023-04-06T05:26:57;96751.66;;;0.82;83.00
55271;BME280;41132;47.162;9.470;2023-04-06T05:29:22;96748.22;;;0.81;83.24
55271;BME280;41132;47.162;9.470;2023-04-06T05:31:47;96732.69;;;0.67;85.67
55271;BME280;41132;47.162;9.470;2023-04-06T05:34:13;96747.59;;;0.92;83.09
55271;BME280;41132;47.162;9.470;2023-04-06T05:36:38;96752.47;;;0.82;83.45
55271;BME280;41132;47.162;9.470;2023-04-06T05:39:05;96743.34;;;0.91;83.81
55271;BME280;41132;47.162;9.470;2023-04-06T05:41:31;96746.56;;;0.80;83.96
55271;BME280;41132;47.162;9.470;2023-04-06T05:43:56;96737.81;;;0.97;84.08
55271;BME280;41132;47.162;9.470;2023-04-06T05:46:21;96736.50;;;0.90;84.15
55271;BME280;41132;47.162;9.470;2023-04-06T05:48:47;96740.50;;;0.96;82.69
55271;BME280;41132;47.162;9.470;2023-04-06T05:51:12;96758.78;;;1.07;83.79
55271;BME280;41132;47.162;9.470;2023-04-06T05:53:37;96755.00;;;1.13;83.98
55271;BME280;41132;47.162;9.470;2023-04-06T05:56:04;96755.81;;;0.99;85.68
55271;BME280;41132;47.162;9.470;2023-04-06T05:58:30;96763.56;;;0.99;83.90
55271;BME280;41132;47.162;9.470;2023-04-06T06:00:59;96766.00;;;1.16;85.82
55271;BME280;41132;47.162;9.470;2023-04-06T06:03:25;96768.31;;;1.21;85.27
55271;BME280;41132;47.162;9.470;2023-04-06T06:05:51;96765.06;;;1.32;85.28
55271;BME280;41132;47.162;9.470;2023-04-06T06:08:16;96762.75;;;1.27;87.60
55271;BME280;41132;47.162;9.470;2023-04-06T06:10:42;96765.72;;;1.21;87.65
55271;BME280;41132;47.162;9.470;2023-04-06T06:13:08;96775.88;;;1.38;84.01
55271;BME280;41132;47.162;9.470;2023-04-06T06:15:33;96765.72;;;1.64;82.15
55271;BME280;41132;47.162;9.470;2023-04-06T06:17:59;96761.91;;;2.11;81.00
55271;BME280;41132;47.162;9.470;2023-04-06T06:20:24;96760.66;;;2.84;75.80
55271;BME280;41132;47.162;9.470;2023-04-06T06:22:50;96766.13;;;4.91;66.79
55271;BME280;41132;47.162;9.470;2023-04-06T06:25:15;96758.72;;;6.21;61.20
55271;BME280;41132;47.162;9.470;2023-04-06T06:27:41;96765.25;;;7.74;51.61
55271;BME280;41132;47.162;9.470;2023-04-06T06:30:07;96745.25;;;8.04;49.38
55271;BME280;41132;47.162;9.470;2023-04-06T06:32:33;96740.22;;;7.71;49.01
55271;BME280;41132;47.162;9.470;2023-04-06T06:34:59;96752.47;;;7.71;48.53
55271;BME280;41132;47.162;9.470;2023-04-06T06:37:25;96751.69;;;9.18;45.92
55271;BME280;41132;47.162;9.470;2023-04-06T06:39:50;96753.63;;;10.00;43.45
55271;BME280;41132;47.162;9.470;2023-04-06T06:44:51;96752.59;;;11.11;38.94
55271;BME280;41132;47.162;9.470;2023-04-06T06:53:20;96753.97;;;12.60;34.64
55271;BME280;41132;47.162;9.470;2023-04-06T07:03:26;96753.63;;;13.62;34.03
55271;BME280;41132;47.162;9.470;2023-04-06T07:05:52;96758.78;;;13.39;34.08
55271;BME280;41132;47.162;9.470;2023-04-06T07:08:19;96740.25;;;13.79;32.13
55271;BME280;41132;47.162;9.470;2023-04-06T07:15:55;96754.97;;;13.66;33.27
55271;BME280;41132;47.162;9.470;2023-04-06T07:20:56;96756.34;;;14.32;33.59
55271;BME280;41132;47.162;9.470;2023-04-06T07:23:22;96749.75;;;14.68;31.68
55271;BME280;41132;47.162;9.470;2023-04-06T07:25:48;96756.66;;;15.38;31.02
55271;BME280;41132;47.162;9.470;2023-04-06T07:28:16;96752.44;;;15.29;30.89
55271;BME280;41132;47.162;9.470;2023-04-06T07:30:41;96746.97;;;15.07;30.28
55271;BME280;41132;47.162;9.470;2023-04-06T07:33:07;96744.50;;;15.81;29.40
55271;BME280;41132;47.162;9.470;2023-04-06T07:35:32;96733.81;;;15.75;30.86
55271;BME280;41132;47.162;9.470;2023-04-06T07:38:00;96731.22;;;15.52;31.03
55271;BME280;41132;47.162;9.470;2023-04-06T07:40:36;96747.22;;;16.18;29.29
55271;BME280;41132;47.162;9.470;2023-04-06T10:16:23;96627.78;;;20.92;22.24
55271;BME280;41132;47.162;9.470;2023-04-06T18:47:21;96613.44;;;8.84;53.66
55271;BME280;41132;47.162;9.470;2023-04-06T18:49:47;96608.06;;;8.76;51.31
55271;BME280;41132;47.162;9.470;2023-04-06T18:52:14;96598.06;;;8.62;53.65
55271;BME280;41132;47.162;9.470;2023-04-06T18:54:40;96612.63;;;8.74;51.05
